Time;durP1;ratioP1;P1;durP2;ratioP2;P2;SDS_P1;SDS_P2;PMS_P1;PMS_P2;Temp;Humidity;BMP_temperature;BMP_pressure;BME280_temperature;BME280_humidity;BME280_pressure;Samples;Min_cycle;Max_cycle;Signal;HPM_P1;HPM_P2
2022/03/31 00:00:35;;;;;;;3.88;1.50;;;2.90;99.90;;;;;;4846055;29;20120;-68
2022/03/31 00:03:05;;;;;;;4.50;1.70;;;2.90;99.90;;;;;;4853366;29;20062;-68
2022/03/31 00:05:32;;;;;;;5.47;1.40;;;2.90;99.90;;;;;;4846808;29;20132;-67
2022/03/31 00:08:03;;;;;;;3.53;1.38;;;2.90;99.90;;;;;;4859814;29;20132;-68
2022/03/31 00:10:36;;;;;;;1.55;1.25;;;2.90;99.90;;;;;;4861191;29;20045;-68
2022/03/31 00:13:07;;;;;;;1.95;1.00;;;2.90;99.90;;;;;;4861750;29;20053;-66
2022/03/31 00:15:33;;;;;;;3.47;1.63;;;2.90;99.90;;;;;;4859948;29;20057;-65
2022/03/31 00:18:01;;;;;;;4.70;1.40;;;2.90;99.90;;;;;;4862027;29;20056;-66
2022/03/31 00:33:53;;;;;;;2.40;1.30;;;2.90;99.90;;;;;;4865736;29;20414;-68
2022/03/31 00:36:19;;;;;;;4.60;1.38;;;2.90;99.90;;;;;;4869682;29;20053;-68
2022/03/31 00:39:28;;;;;;;5.80;1.67;;;2.90;99.90;;;;;;4860607;29;20059;-66
2022/03/31 00:41:38;;;;;;;3.38;1.25;;;2.90;99.90;;;;;;4855039;29;20057;-68
2022/03/31 00:44:05;;;;;;;3.55;1.27;;;2.90;99.90;;;;;;4859977;29;20132;-69
2022/03/31 00:46:31;;;;;;;4.40;1.60;;;2.90;99.90;;;;;;4870597;29;20196;-68
2022/03/31 00:48:57;;;;;;;3.53;1.65;;;2.90;99.90;;;;;;4861345;29;20160;-66
2022/03/31 00:51:23;;;;;;;2.80;1.60;;;2.80;99.90;;;;;;4858229;29;20104;-68
2022/03/31 00:53:49;;;;;;;4.80;2.00;;;2.90;99.90;;;;;;4867649;29;20064;-68
2022/03/31 00:56:16;;;;;;;3.50;2.03;;;2.90;99.90;;;;;;4854969;29;20469;-67
2022/03/31 00:58:43;;;;;;;6.65;2.70;;;2.90;99.90;;;;;;4846056;29;20053;-68
2022/03/31 01:01:10;;;;;;;6.53;3.03;;;2.90;99.90;;;;;;4861845;29;20063;-66
2022/03/31 01:03:35;;;;;;;5.57;2.63;;;2.90;99.90;;;;;;4862566;29;20068;-67
2022/03/31 01:06:01;;;;;;;6.45;2.70;;;2.90;99.90;;;;;;4835759;29;20065;-68
2022/03/31 01:08:27;;;;;;;5.90;3.00;;;2.90;99.90;;;;;;4857171;29;20538;-67
2022/03/31 01:10:53;;;;;;;4.97;2.03;;;2.90;99.90;;;;;;4860883;29;20109;-70
2022/03/31 01:13:19;;;;;;;3.08;1.65;;;3.00;99.90;;;;;;4853166;29;20076;-67
2022/03/31 01:15:45;;;;;;;3.95;1.30;;;3.00;99.90;;;;;;4859727;29;20061;-68
2022/03/31 01:18:10;;;;;;;5.55;1.60;;;2.90;99.90;;;;;;4845826;29;20049;-67
2022/03/31 01:20:36;;;;;;;3.45;1.40;;;2.90;99.90;;;;;;4846329;29;20094;-68
2022/03/31 01:23:14;;;;;;;3.95;1.60;;;2.90;99.90;;;;;;4862299;29;20216;-67
2022/03/31 01:25:41;;;;;;;4.55;1.58;;;2.90;99.90;;;;;;4857592;29;20495;-68
2022/03/31 01:28:07;;;;;;;2.25;1.40;;;2.90;99.90;;;;;;4872973;29;20055;-67
2022/03/31 01:30:33;;;;;;;3.40;1.38;;;2.80;99.90;;;;;;4846099;29;20061;-68
2022/03/31 01:32:59;;;;;;;4.38;1.42;;;2.80;99.90;;;;;;4845393;29;20058;-68
2022/03/31 01:35:25;;;;;;;3.13;1.38;;;2.80;99.90;;;;;;4864768;29;20068;-68
2022/03/31 01:37:52;;;;;;;4.38;1.30;;;2.80;99.90;;;;;;4847460;29;20045;-67
2022/03/31 01:40:17;;;;;;;3.90;1.77;;;2.90;99.90;;;;;;4863805;29;20455;-68
2022/03/31 01:42:45;;;;;;;2.85;1.70;;;2.80;99.90;;;;;;4880421;29;20060;-66
2022/03/31 01:45:14;;;;;;;2.63;1.90;;;2.80;99.90;;;;;;4855042;29;20495;-69
2022/03/31 01:47:40;;;;;;;3.40;1.70;;;2.70;99.90;;;;;;4869242;29;20089;-67
2022/03/31 01:50:10;;;;;;;2.75;1.55;;;2.70;99.90;;;;;;4864377;29;20045;-67
2022/03/31 01:52:37;;;;;;;2.08;1.40;;;2.70;99.90;;;;;;4864115;29;20067;-68
2022/03/31 01:55:05;;;;;;;4.30;1.90;;;2.70;99.90;;;;;;4864306;29;20060;-68
2022/03/31 01:57:30;;;;;;;4.40;1.70;;;2.70;99.90;;;;;;4853208;29;20081;-67
2022/03/31 01:59:56;;;;;;;4.20;1.85;;;2.60;99.90;;;;;;4862119;29;20570;-71
2022/03/31 02:02:23;;;;;;;5.32;1.90;;;2.60;99.90;;;;;;4860551;29;20053;-68
2022/03/31 02:04:48;;;;;;;3.65;2.13;;;2.60;99.90;;;;;;4860608;29;20057;-70
2022/03/31 02:07:14;;;;;;;2.67;1.40;;;2.60;99.90;;;;;;4860256;29;20053;-68
2022/03/31 02:09:41;;;;;;;4.53;1.55;;;2.60;99.90;;;;;;4855015;29;20137;-68
2022/03/31 02:12:07;;;;;;;4.47;1.70;;;2.50;99.90;;;;;;4855167;29;20108;-70
2022/03/31 02:14:37;;;;;;;4.93;1.90;;;2.50;99.90;;;;;;4863571;29;20061;-67
2022/03/31 02:17:07;;;;;;;2.83;1.70;;;2.50;99.90;;;;;;4865013;29;20197;-70
2022/03/31 02:19:33;;;;;;;3.65;1.83;;;2.50;99.90;;;;;;4845497;29;20375;-66
2022/03/31 02:21:59;;;;;;;2.05;1.50;;;2.50;99.90;;;;;;4845008;29;20383;-68
2022/03/31 02:24:25;;;;;;;4.60;1.65;;;2.50;99.90;;;;;;4845682;29;20049;-68
2022/03/31 02:26:51;;;;;;;3.00;1.60;;;2.50;99.90;;;;;;4840158;29;20136;-70
2022/03/31 02:29:18;;;;;;;4.00;1.70;;;2.50;99.90;;;;;;4844978;29;20053;-68
2022/03/31 02:31:46;;;;;;;3.72;1.33;;;2.50;99.90;;;;;;4858204;29;20463;-66
2022/03/31 02:34:12;;;;;;;5.45;1.58;;;2.50;99.90;;;;;;4828293;29;20062;-66
2022/03/31 02:36:38;;;;;;;4.28;1.73;;;2.40;99.90;;;;;;4844511;29;20053;-67
2022/03/31 02:39:04;;;;;;;2.60;1.63;;;2.50;99.90;;;;;;4862381;29;20058;-69
2022/03/31 02:41:29;;;;;;;5.13;2.05;;;2.50;99.90;;;;;;4855439;29;20046;-71
2022/03/31 02:43:55;;;;;;;3.65;1.77;;;2.50;99.90;;;;;;4849618;29;20058;-68
2022/03/31 02:46:21;;;;;;;3.33;2.00;;;2.50;99.90;;;;;;4835041;29;20108;-67
2022/03/31 02:48:47;;;;;;;2.67;1.83;;;2.50;99.90;;;;;;4845676;29;20114;-67
2022/03/31 02:51:12;;;;;;;4.97;2.03;;;2.50;99.90;;;;;;4854207;29;20053;-68
2022/03/31 02:56:22;;;;;;;4.45;2.45;;;2.50;99.90;;;;;;4844511;29;20058;-69
2022/03/31 02:58:47;;;;;;;4.80;2.13;;;2.50;99.90;;;;;;4831315;29;20148;-67
2022/03/31 03:01:13;;;;;;;4.28;1.90;;;2.50;99.90;;;;;;4837081;29;20122;-68
2022/03/31 03:03:39;;;;;;;5.32;2.45;;;2.50;99.90;;;;;;4844070;29;20057;-68
2022/03/31 03:06:04;;;;;;;4.22;2.03;;;2.50;99.90;;;;;;4860748;29;20438;-66
2022/03/31 03:08:31;;;;;;;8.40;2.65;;;2.50;99.90;;;;;;4857331;29;20057;-71
2022/03/31 03:10:57;;;;;;;5.35;2.13;;;2.50;99.90;;;;;;4860752;29;20057;-69
2022/03/31 03:13:23;;;;;;;5.95;2.65;;;2.40;99.90;;;;;;4853903;29;20049;-68
2022/03/31 03:15:49;;;;;;;6.28;2.60;;;2.40;99.90;;;;;;4860535;29;20533;-69
2022/03/31 03:18:18;;;;;;;6.22;3.08;;;2.50;99.90;;;;;;4858685;29;20058;-68
2022/03/31 03:20:44;;;;;;;5.53;3.22;;;2.50;99.90;;;;;;4877171;29;20052;-70
2022/03/31 03:23:10;;;;;;;5.68;3.08;;;2.50;99.90;;;;;;4852178;29;20061;-68
2022/03/31 03:25:35;;;;;;;6.63;2.95;;;2.50;99.90;;;;;;4855565;29;20072;-68
2022/03/31 03:28:01;;;;;;;6.70;3.75;;;2.50;99.90;;;;;;4846657;29;20059;-68
2022/03/31 03:30:27;;;;;;;8.90;4.38;;;2.50;99.90;;;;;;4862993;29;20067;-70
2022/03/31 03:32:53;;;;;;;7.13;4.72;;;2.50;99.90;;;;;;4861836;29;20516;-67
2022/03/31 03:35:20;;;;;;;5.97;4.13;;;2.60;99.90;;;;;;4847387;29;20048;-66
2022/03/31 03:37:46;;;;;;;8.45;4.80;;;2.60;99.90;;;;;;4872295;29;20403;-68
2022/03/31 03:40:13;;;;;;;7.15;5.45;;;2.60;99.90;;;;;;4848871;29;20054;-68
2022/03/31 03:42:39;;;;;;;9.60;5.85;;;2.60;99.90;;;;;;4857710;29;20057;-68
2022/03/31 03:45:07;;;;;;;11.00;6.47;;;2.60;99.90;;;;;;4843716;29;20065;-67
2022/03/31 03:47:33;;;;;;;7.07;5.80;;;2.60;99.90;;;;;;4860383;29;20065;-67
2022/03/31 03:49:59;;;;;;;6.68;5.57;;;2.60;99.90;;;;;;4843762;29;20517;-70
2022/03/31 03:52:24;;;;;;;7.22;6.13;;;2.60;99.90;;;;;;4860450;29;20046;-68
2022/03/31 03:54:50;;;;;;;8.30;6.50;;;2.60;99.90;;;;;;4878648;29;20045;-68
2022/03/31 03:57:16;;;;;;;8.40;6.95;;;2.60;99.90;;;;;;4876540;29;20069;-66
2022/03/31 03:59:43;;;;;;;11.00;6.80;;;2.60;99.90;;;;;;4861870;29;20061;-68
2022/03/31 04:02:08;;;;;;;8.73;6.65;;;2.60;99.90;;;;;;4861928;29;20504;-67
2022/03/31 04:04:34;;;;;;;8.57;6.40;;;2.70;99.90;;;;;;4857466;29;20100;-66
2022/03/31 04:07:00;;;;;;;8.18;6.82;;;2.70;99.90;;;;;;4859025;29;20061;-66
2022/03/31 04:09:25;;;;;;;8.35;6.78;;;2.70;99.90;;;;;;4854745;29;20049;-68
2022/03/31 04:11:52;;;;;;;7.68;6.45;;;2.70;99.90;;;;;;4859831;29;20061;-68
2022/03/31 04:14:18;;;;;;;9.18;6.97;;;2.70;99.90;;;;;;4854098;29;20505;-67
2022/03/31 04:16:44;;;;;;;9.07;7.30;;;2.70;99.90;;;;;;4841941;29;20125;-66
2022/03/31 04:19:10;;;;;;;7.43;6.70;;;2.70;99.90;;;;;;4837697;29;20144;-67
2022/03/31 04:21:36;;;;;;;8.23;6.72;;;2.70;99.90;;;;;;4864642;29;20057;-69
2022/03/31 04:24:04;;;;;;;9.43;7.40;;;2.70;99.90;;;;;;4858663;29;20067;-67
2022/03/31 04:26:29;;;;;;;7.50;6.50;;;2.70;99.90;;;;;;4870929;29;20608;-68
2022/03/31 04:28:56;;;;;;;7.40;6.60;;;2.70;99.90;;;;;;4851723;29;20133;-70
2022/03/31 04:31:21;;;;;;;9.55;6.80;;;2.70;99.90;;;;;;4844322;29;20065;-66
2022/03/31 04:33:47;;;;;;;6.68;5.95;;;2.70;99.90;;;;;;4848934;29;20049;-69
2022/03/31 04:36:12;;;;;;;7.57;6.28;;;2.70;99.90;;;;;;4864460;29;20489;-66
2022/03/31 04:38:38;;;;;;;12.02;6.70;;;2.70;99.90;;;;;;4859844;29;20061;-67
2022/03/31 04:41:04;;;;;;;7.50;6.13;;;2.60;99.90;;;;;;4862563;29;20057;-67
2022/03/31 04:43:29;;;;;;;8.30;6.25;;;2.60;99.90;;;;;;4844382;29;20133;-68
2022/03/31 04:45:55;;;;;;;9.48;6.20;;;2.60;99.90;;;;;;4867004;29;20085;-67
2022/03/31 04:48:21;;;;;;;7.57;6.40;;;2.60;99.90;;;;;;4865110;29;20052;-67
2022/03/31 04:50:47;;;;;;;7.72;6.32;;;2.50;99.90;;;;;;4858999;29;20064;-67
2022/03/31 04:53:14;;;;;;;7.93;6.68;;;2.50;99.90;;;;;;4856288;29;20124;-68
2022/03/31 04:55:39;;;;;;;7.43;5.88;;;2.60;99.90;;;;;;4854735;29;20104;-67
2022/03/31 04:58:05;;;;;;;6.70;6.00;;;2.50;99.90;;;;;;4850088;29;20088;-67
2022/03/31 05:00:31;;;;;;;6.72;6.03;;;2.60;99.90;;;;;;4861769;29;20045;-69
2022/03/31 05:02:59;;;;;;;6.10;5.30;;;2.50;99.90;;;;;;4846731;29;20053;-68
2022/03/31 05:05:25;;;;;;;7.70;5.78;;;2.50;99.90;;;;;;4874558;29;20061;-67
2022/03/31 05:07:51;;;;;;;7.53;5.78;;;2.50;99.90;;;;;;4863989;29;20392;-65
2022/03/31 05:10:16;;;;;;;6.40;5.15;;;2.40;99.90;;;;;;4852466;29;20052;-66
2022/03/31 05:12:42;;;;;;;6.60;5.45;;;2.50;99.90;;;;;;4848048;29;20062;-66
2022/03/31 05:15:08;;;;;;;7.18;5.82;;;2.50;99.90;;;;;;4846178;29;20065;-66
2022/03/31 05:17:35;;;;;;;6.78;5.78;;;2.40;99.90;;;;;;4863163;29;20060;-68
2022/03/31 05:20:05;;;;;;;6.95;5.47;;;2.40;99.90;;;;;;4862996;29;20049;-66
2022/03/31 05:22:33;;;;;;;6.00;5.40;;;2.40;99.90;;;;;;4863848;29;20469;-66
2022/03/31 05:24:59;;;;;;;5.90;4.95;;;2.40;99.90;;;;;;4863306;29;20073;-67
2022/03/31 05:27:25;;;;;;;5.93;5.32;;;2.40;99.90;;;;;;4861973;29;20132;-67
2022/03/31 05:29:50;;;;;;;6.90;5.93;;;2.40;99.90;;;;;;4856713;29;20527;-67
2022/03/31 05:32:16;;;;;;;8.80;6.05;;;2.40;99.90;;;;;;4842078;29;20058;-67
2022/03/31 05:34:41;;;;;;;6.28;5.25;;;2.40;99.90;;;;;;4850844;29;20463;-67
2022/03/31 05:37:07;;;;;;;7.10;5.95;;;2.50;99.90;;;;;;4855911;29;20105;-68
2022/03/31 05:39:33;;;;;;;7.25;6.32;;;2.40;99.90;;;;;;4843883;29;20061;-68
2022/03/31 05:41:58;;;;;;;7.10;6.03;;;2.40;99.90;;;;;;4852405;29;20061;-67
2022/03/31 05:44:24;;;;;;;7.22;6.20;;;2.40;99.90;;;;;;4866314;29;20060;-68
2022/03/31 05:46:51;;;;;;;7.22;6.35;;;2.40;99.90;;;;;;4837493;29;20056;-67
2022/03/31 05:49:18;;;;;;;7.20;6.40;;;2.40;99.90;;;;;;4832045;29;20538;-68
2022/03/31 05:51:44;;;;;;;8.30;6.10;;;2.40;99.90;;;;;;4864374;29;20061;-66
2022/03/31 05:54:10;;;;;;;7.88;6.72;;;2.40;99.90;;;;;;4852683;29;20137;-67
2022/03/31 05:56:37;;;;;;;7.85;6.22;;;2.40;99.90;;;;;;4836927;29;20101;-67
2022/03/31 05:59:05;;;;;;;8.43;7.00;;;2.50;99.90;;;;;;4856085;29;20122;-70
2022/03/31 06:01:32;;;;;;;8.55;6.80;;;2.50;99.90;;;;;;4834718;29;20054;-66
2022/03/31 06:03:57;;;;;;;9.02;7.07;;;2.60;99.90;;;;;;4853679;29;20062;-67
2022/03/31 06:06:23;;;;;;;8.52;7.10;;;2.60;99.90;;;;;;4852122;29;20682;-68
2022/03/31 06:08:50;;;;;;;9.32;7.20;;;2.60;99.90;;;;;;4852153;29;20057;-67
2022/03/31 06:11:15;;;;;;;9.68;7.53;;;2.60;99.90;;;;;;4851349;29;20053;-68
2022/03/31 06:13:41;;;;;;;8.82;7.88;;;2.70;99.90;;;;;;4851693;29;20560;-67
2022/03/31 06:16:06;;;;;;;9.60;7.65;;;2.70;99.90;;;;;;4862086;29;20503;-67
2022/03/31 06:18:32;;;;;;;9.02;7.82;;;2.70;99.90;;;;;;4860691;29;20542;-67
2022/03/31 06:20:58;;;;;;;10.48;8.13;;;2.70;99.90;;;;;;4845237;29;20053;-68
2022/03/31 06:23:23;;;;;;;9.13;7.40;;;2.70;99.90;;;;;;4860409;29;20061;-67
2022/03/31 06:25:50;;;;;;;8.68;7.50;;;2.70;99.90;;;;;;4856256;29;20057;-68
2022/03/31 06:28:16;;;;;;;10.57;7.95;;;2.70;99.90;;;;;;4848758;29;20611;-69
2022/03/31 06:30:42;;;;;;;9.25;8.00;;;2.70;99.90;;;;;;4853968;29;20148;-69
2022/03/31 06:33:08;;;;;;;9.93;7.93;;;2.70;99.90;;;;;;4880138;29;20477;-67
2022/03/31 06:35:34;;;;;;;9.70;7.60;;;2.70;99.90;;;;;;4863791;29;20064;-67
2022/03/31 06:38:01;;;;;;;12.95;8.90;;;2.80;99.90;;;;;;4849487;29;20058;-67
2022/03/31 06:40:27;;;;;;;11.23;8.65;;;2.80;99.90;;;;;;4861814;29;20069;-68
2022/03/31 06:42:53;;;;;;;9.85;8.57;;;2.80;99.90;;;;;;4860615;29;20072;-67
2022/03/31 06:45:19;;;;;;;12.15;9.10;;;2.80;99.90;;;;;;4868812;29;20049;-67
2022/03/31 06:47:45;;;;;;;10.77;8.82;;;2.80;99.90;;;;;;4863656;29;20137;-67
2022/03/31 06:50:13;;;;;;;10.70;8.68;;;2.80;99.90;;;;;;4880043;29;20091;-66
2022/03/31 06:52:38;;;;;;;33.08;10.38;;;2.90;99.90;;;;;;4860792;29;20148;-66
2022/03/31 06:55:04;;;;;;;10.02;8.77;;;2.90;99.90;;;;;;4845191;29;20148;-67
2022/03/31 06:57:30;;;;;;;11.48;8.50;;;2.90;99.90;;;;;;4859145;29;20057;-68
2022/03/31 06:59:56;;;;;;;10.38;8.07;;;3.00;99.90;;;;;;4861076;29;20049;-67
2022/03/31 07:02:21;;;;;;;9.43;7.80;;;2.90;99.90;;;;;;4850742;29;20054;-67
2022/03/31 07:04:47;;;;;;;11.10;8.20;;;3.00;99.90;;;;;;4851021;29;20130;-66
2022/03/31 07:07:12;;;;;;;22.00;8.98;;;2.90;99.90;;;;;;4856707;29;20084;-67
2022/03/31 07:09:38;;;;;;;13.05;8.90;;;3.00;99.90;;;;;;4859767;29;20088;-66
2022/03/31 07:12:04;;;;;;;9.57;8.23;;;3.00;99.90;;;;;;4846335;29;20500;-68
2022/03/31 07:14:33;;;;;;;11.82;8.93;;;3.10;99.90;;;;;;4826063;29;20558;-68
2022/03/31 07:16:59;;;;;;;10.95;8.98;;;3.10;99.90;;;;;;4843876;29;20065;-66
2022/03/31 07:19:25;;;;;;;9.88;8.73;;;3.10;99.90;;;;;;4845699;29;20068;-66
2022/03/31 07:21:51;;;;;;;10.98;9.30;;;3.10;99.90;;;;;;4841431;29;20089;-66
2022/03/31 07:24:17;;;;;;;9.88;8.57;;;3.10;99.90;;;;;;4844320;29;20478;-67
2022/03/31 07:26:43;;;;;;;10.90;8.60;;;3.10;99.90;;;;;;4844070;29;20092;-68
2022/03/31 07:29:09;;;;;;;10.68;8.43;;;3.10;99.90;;;;;;4844040;29;20105;-68
2022/03/31 07:31:34;;;;;;;10.85;9.18;;;3.00;99.90;;;;;;4844044;29;20050;-67
2022/03/31 07:34:00;;;;;;;10.90;9.10;;;3.00;99.90;;;;;;4859826;29;20093;-66
2022/03/31 07:36:26;;;;;;;12.00;9.63;;;3.00;99.90;;;;;;4844180;29;20064;-67
2022/03/31 07:38:51;;;;;;;11.38;9.93;;;3.10;99.90;;;;;;4843861;29;20141;-66
2022/03/31 07:41:17;;;;;;;12.60;9.95;;;3.10;99.90;;;;;;4859686;29;20099;-68
2022/03/31 07:43:43;;;;;;;12.27;10.43;;;3.10;99.90;;;;;;4858845;29;20147;-67
2022/03/31 07:46:10;;;;;;;11.82;9.88;;;3.00;99.90;;;;;;4844496;29;20455;-66
2022/03/31 07:48:36;;;;;;;13.32;10.55;;;3.00;99.90;;;;;;4860512;29;20057;-67
2022/03/31 07:51:01;;;;;;;12.93;10.55;;;3.00;99.90;;;;;;4844285;29;20071;-67
2022/03/31 07:53:32;;;;;;;13.23;10.80;;;3.00;99.90;;;;;;4843888;29;20054;-67
2022/03/31 07:55:59;;;;;;;12.82;10.32;;;3.00;99.90;;;;;;4859977;29;20130;-67
2022/03/31 07:58:24;;;;;;;12.82;10.35;;;3.00;99.90;;;;;;4843717;29;20430;-67
2022/03/31 08:00:50;;;;;;;13.52;10.85;;;3.10;99.90;;;;;;4844039;29;20054;-67
2022/03/31 08:03:17;;;;;;;13.25;11.50;;;3.10;99.90;;;;;;4859314;29;20061;-66
2022/03/31 08:05:43;;;;;;;13.13;10.27;;;3.10;99.90;;;;;;4842902;29;20060;-65
2022/03/31 08:08:09;;;;;;;13.68;10.93;;;3.10;99.90;;;;;;4842917;29;20045;-66
2022/03/31 08:10:35;;;;;;;11.65;10.00;;;3.10;99.90;;;;;;4843511;29;20129;-66
2022/03/31 08:13:00;;;;;;;12.38;9.82;;;3.10;99.90;;;;;;4856720;29;20087;-67
2022/03/31 08:15:26;;;;;;;13.48;10.93;;;3.10;99.90;;;;;;4862406;29;20160;-65
2022/03/31 08:17:52;;;;;;;15.00;11.60;;;3.00;99.90;;;;;;4855747;29;20083;-66
2022/03/31 08:20:18;;;;;;;13.57;11.30;;;3.10;99.90;;;;;;4846994;29;20049;-67
2022/03/31 08:22:44;;;;;;;13.93;10.98;;;3.10;99.90;;;;;;4843187;29;20058;-66
2022/03/31 08:25:11;;;;;;;14.95;11.10;;;3.00;99.90;;;;;;4841937;29;20062;-68
2022/03/31 08:27:38;;;;;;;12.95;10.77;;;3.00;99.90;;;;;;4826411;29;20481;-66
2022/03/31 08:30:09;;;;;;;13.07;10.43;;;3.00;99.90;;;;;;4843359;29;20383;-66
2022/03/31 08:32:38;;;;;;;15.20;11.77;;;3.00;99.90;;;;;;4840692;29;20067;-65
2022/03/31 08:35:05;;;;;;;14.07;10.63;;;3.00;99.90;;;;;;4828589;29;20495;-68
2022/03/31 08:37:31;;;;;;;13.43;10.80;;;3.10;99.90;;;;;;4842987;29;20396;-68
2022/03/31 08:39:56;;;;;;;14.07;10.90;;;3.10;99.90;;;;;;4843568;29;20056;-68
2022/03/31 08:42:22;;;;;;;14.00;11.65;;;3.10;99.90;;;;;;4841298;29;20049;-68
2022/03/31 08:44:50;;;;;;;14.63;11.55;;;3.10;99.90;;;;;;4845461;29;20058;-66
2022/03/31 08:47:17;;;;;;;14.60;11.57;;;3.10;99.90;;;;;;4843452;29;20092;-69
2022/03/31 08:49:44;;;;;;;14.20;11.25;;;3.10;99.90;;;;;;4853109;29;20052;-67
2022/03/31 08:52:10;;;;;;;14.68;11.52;;;3.20;99.90;;;;;;4843071;29;20406;-68
2022/03/31 08:54:36;;;;;;;13.38;10.52;;;3.20;99.90;;;;;;4859852;29;20136;-67
2022/03/31 08:57:02;;;;;;;11.80;9.88;;;3.20;99.90;;;;;;4838901;29;20061;-67
2022/03/31 08:59:27;;;;;;;11.18;9.43;;;3.20;99.90;;;;;;4835531;29;20058;-66
2022/03/31 09:01:53;;;;;;;11.50;9.27;;;3.10;99.90;;;;;;4824865;29;20058;-66
2022/03/31 09:04:23;;;;;;;12.07;9.38;;;3.20;99.90;;;;;;4843142;29;20057;-67
2022/03/31 09:07:00;;;;;;;11.38;9.60;;;3.10;99.90;;;;;;4854235;29;20107;-67
2022/03/31 09:09:26;;;;;;;11.70;9.65;;;3.10;99.90;;;;;;4861933;29;20069;-65
2022/03/31 09:11:51;;;;;;;11.13;9.10;;;3.10;99.90;;;;;;4861088;29;20061;-66
2022/03/31 09:14:28;;;;;;;10.70;8.77;;;3.10;99.90;;;;;;4859485;29;20181;-68
2022/03/31 09:16:54;;;;;;;10.65;8.32;;;3.00;99.90;;;;;;4858177;29;20049;-65
2022/03/31 09:19:20;;;;;;;10.43;8.30;;;3.00;99.90;;;;;;4849541;29;20423;-67
2022/03/31 09:21:54;;;;;;;9.98;8.30;;;2.90;99.90;;;;;;4854394;29;20060;-65
2022/03/31 09:24:21;;;;;;;10.65;7.38;;;2.90;99.90;;;;;;4861321;29;20054;-66
2022/03/31 09:26:48;;;;;;;8.77;7.72;;;2.80;99.90;;;;;;4855390;29;20061;-67
2022/03/31 09:29:15;;;;;;;8.57;7.15;;;2.80;99.90;;;;;;4856220;29;20049;-65
2022/03/31 09:31:41;;;;;;;8.55;6.75;;;2.70;99.90;;;;;;4846622;29;20414;-67
2022/03/31 09:34:08;;;;;;;9.00;7.00;;;2.70;99.90;;;;;;4861588;29;20065;-65
2022/03/31 09:36:39;;;;;;;7.57;5.78;;;2.60;99.90;;;;;;4862826;29;20108;-65
2022/03/31 09:39:08;;;;;;;7.68;6.00;;;2.60;99.90;;;;;;4859316;29;20383;-66
2022/03/31 09:41:39;;;;;;;6.05;5.10;;;2.50;99.90;;;;;;4844136;29;20099;-66
2022/03/31 09:44:07;;;;;;;6.43;5.35;;;2.50;99.90;;;;;;4852034;29;20062;-66
2022/03/31 09:46:36;;;;;;;6.22;4.95;;;2.50;99.90;;;;;;4844639;29;20069;-66
2022/03/31 09:49:25;;;;;;;5.78;4.82;;;2.50;99.90;;;;;;4844405;29;20111;-65
2022/03/31 09:51:56;;;;;;;5.10;4.35;;;2.40;99.90;;;;;;4846120;29;20435;-66
2022/03/31 09:54:23;;;;;;;5.88;4.78;;;2.40;99.90;;;;;;4846077;29;20061;-67
2022/03/31 09:56:49;;;;;;;5.35;4.38;;;2.40;99.90;;;;;;4861907;29;20116;-66
2022/03/31 09:59:16;;;;;;;5.50;4.38;;;2.40;99.90;;;;;;4843660;29;20379;-67
2022/03/31 10:01:42;;;;;;;5.03;4.05;;;2.50;99.90;;;;;;4844164;29;20101;-66
2022/03/31 10:04:10;;;;;;;5.10;4.18;;;2.50;99.90;;;;;;4848427;29;20065;-66
2022/03/31 10:06:38;;;;;;;4.80;4.00;;;2.50;99.90;;;;;;4851861;29;20522;-66
2022/03/31 10:09:05;;;;;;;5.07;4.28;;;2.40;99.90;;;;;;4828961;29;20448;-66
2022/03/31 10:11:44;;;;;;;4.70;4.05;;;2.40;99.90;;;;;;4850718;29;20464;-66
2022/03/31 10:14:15;;;;;;;5.90;4.40;;;2.40;99.90;;;;;;4827126;29;20061;-66
2022/03/31 10:16:59;;;;;;;7.53;4.32;;;2.40;99.90;;;;;;4827065;29;20514;-66
2022/03/31 10:19:36;;;;;;;5.85;4.30;;;2.30;99.90;;;;;;4843642;29;20053;-66
2022/03/31 10:22:08;;;;;;;9.85;4.80;;;2.30;99.90;;;;;;4856671;29;20061;-68
2022/03/31 10:24:46;;;;;;;10.15;4.82;;;2.30;99.90;;;;;;4858690;29;20133;-66
2022/03/31 10:27:30;;;;;;;5.45;4.50;;;2.30;99.90;;;;;;4836511;29;20133;-68
2022/03/31 10:30:07;;;;;;;5.75;4.35;;;2.30;99.90;;;;;;4828261;29;20061;-67
2022/03/31 10:32:33;;;;;;;8.10;4.45;;;2.30;99.90;;;;;;4826727;29;20060;-66
2022/03/31 10:34:59;;;;;;;6.50;4.38;;;2.30;99.90;;;;;;4856616;29;20053;-66
2022/03/31 10:37:34;;;;;;;5.95;3.90;;;2.30;99.90;;;;;;4863664;29;20137;-66
2022/03/31 10:40:01;;;;;;;5.38;4.53;;;2.20;99.90;;;;;;4859575;29;20140;-65
2022/03/31 10:42:27;;;;;;;4.53;4.03;;;2.10;99.90;;;;;;4840634;29;20053;-67
2022/03/31 10:45:06;;;;;;;6.70;4.32;;;2.10;99.90;;;;;;4873553;29;20060;-65
2022/03/31 10:47:34;;;;;;;7.50;4.88;;;2.00;99.90;;;;;;4862111;29;20060;-67
2022/03/31 10:50:00;;;;;;;7.35;4.47;;;2.00;99.90;;;;;;4856761;29;20073;-66
2022/03/31 10:52:27;;;;;;;5.30;3.97;;;2.10;99.90;;;;;;4828178;29;20088;-65
2022/03/31 10:55:19;;;;;;;7.03;4.60;;;1.90;99.90;;;;;;4817210;29;20050;-67
2022/03/31 10:57:47;;;;;;;5.35;4.20;;;1.90;99.90;;;;;;4826877;29;20058;-65
2022/03/31 11:00:14;;;;;;;5.13;4.03;;;2.00;99.90;;;;;;4855566;29;20057;-66
2022/03/31 11:02:46;;;;;;;6.43;4.55;;;1.90;99.90;;;;;;4859809;29;20100;-66
2022/03/31 11:05:12;;;;;;;6.93;4.70;;;1.80;99.90;;;;;;4860020;29;20061;-67
2022/03/31 11:07:38;;;;;;;5.13;4.50;;;1.80;99.90;;;;;;4829286;29;20093;-67
2022/03/31 11:10:08;;;;;;;5.85;4.05;;;1.70;99.90;;;;;;4852892;29;20057;-66
2022/03/31 11:12:36;;;;;;;10.45;4.50;;;1.70;99.90;;;;;;4842031;29;20058;-67
2022/03/31 11:15:10;;;;;;;6.05;4.38;;;1.70;99.90;;;;;;4842403;29;20421;-65
2022/03/31 11:17:42;;;;;;;4.72;4.18;;;1.60;99.90;;;;;;4844398;29;20511;-67
2022/03/31 11:20:24;;;;;;;5.10;4.07;;;1.60;99.90;;;;;;4829204;29;20416;-67
2022/03/31 11:23:06;;;;;;;5.10;3.70;;;1.60;99.90;;;;;;4844062;29;20064;-67
2022/03/31 11:25:34;;;;;;;6.25;4.10;;;1.60;99.90;;;;;;4829260;29;20050;-68
2022/03/31 11:28:10;;;;;;;5.53;3.88;;;1.50;99.90;;;;;;4858696;29;20046;-67
2022/03/31 11:30:37;;;;;;;5.25;3.60;;;1.50;99.90;;;;;;4860108;29;20057;-67
2022/03/31 11:33:04;;;;;;;6.25;4.03;;;1.40;99.90;;;;;;4860214;29;20052;-68
2022/03/31 11:35:30;;;;;;;4.60;3.85;;;1.40;99.90;;;;;;4860890;29;20108;-69
2022/03/31 11:37:59;;;;;;;5.68;4.13;;;1.40;99.90;;;;;;4844129;29;20050;-67
2022/03/31 11:40:34;;;;;;;5.47;4.32;;;1.40;99.90;;;;;;4861090;29;20080;-66
2022/03/31 11:43:02;;;;;;;6.38;3.50;;;1.40;99.90;;;;;;4860321;29;20057;-67
2022/03/31 11:45:33;;;;;;;4.70;3.65;;;1.40;99.90;;;;;;4860958;29;20050;-67
2022/03/31 11:48:07;;;;;;;5.13;4.00;;;1.40;99.90;;;;;;4860280;29;20057;-66
2022/03/31 11:50:35;;;;;;;6.18;4.25;;;1.40;99.90;;;;;;4863453;29;20095;-66
2022/03/31 11:53:01;;;;;;;5.35;3.80;;;1.30;99.90;;;;;;4844223;29;20061;-69
2022/03/31 11:55:28;;;;;;;5.30;4.05;;;1.30;99.90;;;;;;4843860;29;20097;-66
2022/03/31 11:57:55;;;;;;;8.40;4.63;;;1.40;99.90;;;;;;4860241;29;20053;-66
2022/03/31 12:00:23;;;;;;;6.57;4.32;;;1.40;99.90;;;;;;4843001;29;20050;-67
2022/03/31 12:03:03;;;;;;;16.30;5.28;;;1.40;99.90;;;;;;4859304;29;20131;-66
2022/03/31 12:05:29;;;;;;;5.65;4.68;;;1.40;99.90;;;;;;4860617;29;20065;-67
2022/03/31 12:07:56;;;;;;;5.85;4.82;;;1.40;99.90;;;;;;4860252;29;20065;-68
2022/03/31 12:10:22;;;;;;;6.22;5.43;;;1.40;99.90;;;;;;4860737;29;20062;-69
2022/03/31 12:12:54;;;;;;;12.55;6.03;;;1.40;99.90;;;;;;4843495;29;20069;-67
2022/03/31 12:15:25;;;;;;;6.75;6.03;;;1.40;99.90;;;;;;4861165;29;20086;-68
2022/03/31 12:18:03;;;;;;;8.13;6.25;;;1.50;99.90;;;;;;4860270;29;20058;-67
2022/03/31 12:20:29;;;;;;;8.20;6.32;;;1.50;99.90;;;;;;4860031;29;20184;-66
2022/03/31 12:22:55;;;;;;;8.82;7.38;;;1.50;99.90;;;;;;4841582;29;20058;-68
2022/03/31 12:25:32;;;;;;;9.38;6.93;;;1.50;99.90;;;;;;4845549;29;20475;-67
2022/03/31 12:28:06;;;;;;;10.30;7.32;;;1.50;99.90;;;;;;4843932;29;20068;-67
2022/03/31 12:30:40;;;;;;;9.93;7.50;;;1.50;99.90;;;;;;4860868;29;20379;-67
2022/03/31 12:33:20;;;;;;;11.40;8.15;;;1.60;99.90;;;;;;4857890;29;20117;-68
2022/03/31 12:36:00;;;;;;;11.40;8.52;;;1.50;99.90;;;;;;4841093;29;20064;-68
2022/03/31 12:38:46;;;;;;;11.85;9.30;;;1.60;99.90;;;;;;4859077;29;20502;-68
2022/03/31 12:41:27;;;;;;;12.30;9.27;;;1.60;99.90;;;;;;4845141;29;20053;-67
2022/03/31 12:44:03;;;;;;;12.88;9.48;;;1.70;99.90;;;;;;4847227;29;20054;-67
2022/03/31 12:46:38;;;;;;;13.95;10.32;;;1.70;99.90;;;;;;4862882;29;20061;-68
2022/03/31 12:49:14;;;;;;;14.40;10.75;;;1.70;99.90;;;;;;4862875;29;20483;-68
2022/03/31 12:52:01;;;;;;;16.73;11.15;;;1.80;99.90;;;;;;4846669;29;20057;-67
2022/03/31 12:54:51;;;;;;;18.83;12.02;;;1.80;99.90;;;;;;4859322;29;20124;-69
2022/03/31 12:57:24;;;;;;;18.77;12.75;;;1.80;99.90;;;;;;4861413;29;20498;-67
2022/03/31 13:00:12;;;;;;;17.98;12.68;;;1.90;99.90;;;;;;4847092;29;20057;-68
2022/03/31 13:02:38;;;;;;;19.65;13.40;;;1.90;99.90;;;;;;4862729;29;20054;-70
2022/03/31 13:05:05;;;;;;;22.63;13.45;;;1.90;99.90;;;;;;4846910;29;20049;-67
2022/03/31 13:07:31;;;;;;;22.13;14.73;;;2.00;99.90;;;;;;4863072;29;20063;-68
2022/03/31 13:09:58;;;;;;;22.77;15.52;;;2.10;99.90;;;;;;4862699;29;20132;-66
2022/03/31 13:12:26;;;;;;;23.15;15.70;;;2.10;99.90;;;;;;4862536;29;20076;-68